sensor_id;sensor_type;location;lat;lon;timestamp;P1;durP1;ratioP1;P2;durP2;ratioP2
51266;SDS011;37338;47.426;19.204;2024-02-04T00:00:42;1.37;;;0.53;;
51266;SDS011;37338;47.426;19.204;2024-02-04T00:03:07;1.00;;;0.60;;
51266;SDS011;37338;47.426;19.204;2024-02-04T00:05:32;0.70;;;0.60;;
51266;SDS011;37338;47.426;19.204;2024-02-04T00:07:58;0.93;;;0.60;;
51266;SDS011;37338;47.426;19.204;2024-02-04T00:10:23;1.20;;;0.63;;
51266;SDS011;37338;47.426;19.204;2024-02-04T00:12:48;1.50;;;0.33;;
51266;SDS011;37338;47.426;19.204;2024-02-04T00:15:14;0.30;;;0.20;;
51266;SDS011;37338;47.426;19.204;2024-02-04T00:17:39;1.23;;;0.30;;
51266;SDS011;37338;47.426;19.204;2024-02-04T00:20:05;2.07;;;0.40;;
51266;SDS011;37338;47.426;19.204;2024-02-04T00:22:31;2.10;;;0.60;;
51266;SDS011;37338;47.426;19.204;2024-02-04T00:24:58;1.80;;;0.40;;
51266;SDS011;37338;47.426;19.204;2024-02-04T00:27:29;0.63;;;0.40;;
51266;SDS011;37338;47.426;19.204;2024-02-04T00:29:54;1.93;;;0.30;;
51266;SDS011;37338;47.426;19.204;2024-02-04T00:32:20;1.20;;;0.30;;
51266;SDS011;37338;47.426;19.204;2024-02-04T00:34:45;1.63;;;0.70;;
51266;SDS011;37338;47.426;19.204;2024-02-04T00:37:11;1.27;;;0.60;;
51266;SDS011;37338;47.426;19.204;2024-02-04T00:39:36;0.50;;;0.30;;
51266;SDS011;37338;47.426;19.204;2024-02-04T00:42:02;0.60;;;0.30;;
51266;SDS011;37338;47.426;19.204;2024-02-04T00:44:27;0.40;;;0.30;;
51266;SDS011;37338;47.426;19.204;2024-02-04T00:46:52;0.33;;;0.30;;
51266;SDS011;37338;47.426;19.204;2024-02-04T00:49:17;2.67;;;0.90;;
51266;SDS011;37338;47.426;19.204;2024-02-04T00:51:43;0.23;;;0.20;;
51266;SDS011;37338;47.426;19.204;2024-02-04T00:54:08;0.67;;;0.23;;
51266;SDS011;37338;47.426;19.204;2024-02-04T00:56:34;0.40;;;0.20;;
51266;SDS011;37338;47.426;19.204;2024-02-04T00:58:59;1.60;;;0.80;;
51266;SDS011;37338;47.426;19.204;2024-02-04T01:01:25;4.13;;;1.57;;
51266;SDS011;37338;47.426;19.204;2024-02-04T01:03:50;2.73;;;1.30;;
51266;SDS011;37338;47.426;19.204;2024-02-04T01:06:15;1.87;;;1.00;;
51266;SDS011;37338;47.426;19.204;2024-02-04T01:08:41;1.07;;;0.40;;
51266;SDS011;37338;47.426;19.204;2024-02-04T01:11:06;0.87;;;0.20;;
51266;SDS011;37338;47.426;19.204;2024-02-04T01:13:32;0.57;;;0.20;;
51266;SDS011;37338;47.426;19.204;2024-02-04T01:15:57;1.33;;;0.40;;
51266;SDS011;37338;47.426;19.204;2024-02-04T01:18:22;0.50;;;0.40;;
51266;SDS011;37338;47.426;19.204;2024-02-04T01:20:48;0.53;;;0.30;;
51266;SDS011;37338;47.426;19.204;2024-02-04T01:23:14;0.40;;;0.20;;
51266;SDS011;37338;47.426;19.204;2024-02-04T01:25:42;0.47;;;0.20;;
51266;SDS011;37338;47.426;19.204;2024-02-04T01:28:07;1.80;;;0.87;;
51266;SDS011;37338;47.426;19.204;2024-02-04T01:30:33;3.83;;;0.83;;
51266;SDS011;37338;47.426;19.204;2024-02-04T01:32:58;1.43;;;0.53;;
51266;SDS011;37338;47.426;19.204;2024-02-04T01:35:23;1.53;;;0.60;;
51266;SDS011;37338;47.426;19.204;2024-02-04T01:37:48;0.77;;;0.50;;
51266;SDS011;37338;47.426;19.204;2024-02-04T01:40:14;0.50;;;0.43;;
51266;SDS011;37338;47.426;19.204;2024-02-04T01:42:39;0.40;;;0.30;;
51266;SDS011;37338;47.426;19.204;2024-02-04T01:45:05;0.70;;;0.30;;
51266;SDS011;37338;47.426;19.204;2024-02-04T01:47:30;0.70;;;0.40;;
51266;SDS011;37338;47.426;19.204;2024-02-04T01:49:56;1.97;;;0.37;;
51266;SDS011;37338;47.426;19.204;2024-02-04T01:52:21;1.10;;;0.70;;
51266;SDS011;37338;47.426;19.204;2024-02-04T01:54:47;0.80;;;0.50;;
51266;SDS011;37338;47.426;19.204;2024-02-04T01:57:12;0.60;;;0.40;;
51266;SDS011;37338;47.426;19.204;2024-02-04T01:59:39;0.83;;;0.50;;
51266;SDS011;37338;47.426;19.204;2024-02-04T02:02:05;0.93;;;0.30;;
51266;SDS011;37338;47.426;19.204;2024-02-04T02:04:30;0.70;;;0.30;;
51266;SDS011;37338;47.426;19.204;2024-02-04T02:06:56;0.70;;;0.37;;
51266;SDS011;37338;47.426;19.204;2024-02-04T02:09:21;0.80;;;0.50;;
51266;SDS011;37338;47.426;19.204;2024-02-04T02:11:47;2.63;;;0.30;;
51266;SDS011;37338;47.426;19.204;2024-02-04T02:14:23;1.88;;;0.35;;
51266;SDS011;37338;47.426;19.204;2024-02-04T02:16:52;1.53;;;0.57;;
51266;SDS011;37338;47.426;19.204;2024-02-04T02:22:04;1.03;;;0.70;;
51266;SDS011;37338;47.426;19.204;2024-02-04T02:24:40;0.67;;;0.30;;
51266;SDS011;37338;47.426;19.204;2024-02-04T02:27:07;0.57;;;0.40;;
51266;SDS011;37338;47.426;19.204;2024-02-04T02:29:32;1.10;;;0.40;;
51266;SDS011;37338;47.426;19.204;2024-02-04T02:31:57;0.93;;;0.50;;
51266;SDS011;37338;47.426;19.204;2024-02-04T02:34:24;0.47;;;0.40;;
51266;SDS011;37338;47.426;19.204;2024-02-04T02:36:54;0.90;;;0.43;;
51266;SDS011;37338;47.426;19.204;2024-02-04T02:39:23;0.83;;;0.47;;
51266;SDS011;37338;47.426;19.204;2024-02-04T02:41:50;3.07;;;0.80;;
51266;SDS011;37338;47.426;19.204;2024-02-04T02:44:18;1.97;;;1.37;;
51266;SDS011;37338;47.426;19.204;2024-02-04T02:46:45;2.67;;;1.20;;
51266;SDS011;37338;47.426;19.204;2024-02-04T02:49:11;2.67;;;1.10;;
51266;SDS011;37338;47.426;19.204;2024-02-04T02:51:37;1.60;;;1.10;;
51266;SDS011;37338;47.426;19.204;2024-02-04T02:54:02;0.87;;;0.60;;
51266;SDS011;37338;47.426;19.204;2024-02-04T02:56:27;0.67;;;0.53;;
51266;SDS011;37338;47.426;19.204;2024-02-04T02:58:52;0.80;;;0.60;;
51266;SDS011;37338;47.426;19.204;2024-02-04T03:01:18;1.70;;;0.63;;
51266;SDS011;37338;47.426;19.204;2024-02-04T03:03:43;1.57;;;0.90;;
51266;SDS011;37338;47.426;19.204;2024-02-04T03:06:09;1.00;;;0.63;;
51266;SDS011;37338;47.426;19.204;2024-02-04T03:08:34;1.57;;;0.70;;
51266;SDS011;37338;47.426;19.204;2024-02-04T03:11:00;2.07;;;0.50;;
51266;SDS011;37338;47.426;19.204;2024-02-04T03:13:25;0.90;;;0.40;;
51266;SDS011;37338;47.426;19.204;2024-02-04T03:15:50;2.33;;;0.80;;
51266;SDS011;37338;47.426;19.204;2024-02-04T03:18:16;0.80;;;0.53;;
51266;SDS011;37338;47.426;19.204;2024-02-04T03:20:41;0.63;;;0.63;;
51266;SDS011;37338;47.426;19.204;2024-02-04T03:23:06;1.23;;;0.67;;
51266;SDS011;37338;47.426;19.204;2024-02-04T03:25:31;1.77;;;0.70;;
51266;SDS011;37338;47.426;19.204;2024-02-04T03:27:57;1.40;;;0.73;;
51266;SDS011;37338;47.426;19.204;2024-02-04T03:30:22;1.33;;;0.80;;
51266;SDS011;37338;47.426;19.204;2024-02-04T03:32:47;0.73;;;0.50;;
51266;SDS011;37338;47.426;19.204;2024-02-04T03:35:13;0.93;;;0.70;;
51266;SDS011;37338;47.426;19.204;2024-02-04T03:37:38;1.07;;;0.50;;
51266;SDS011;37338;47.426;19.204;2024-02-04T03:40:04;1.20;;;0.73;;
51266;SDS011;37338;47.426;19.204;2024-02-04T03:42:29;0.70;;;0.70;;
51266;SDS011;37338;47.426;19.204;2024-02-04T03:44:55;0.93;;;0.67;;
51266;SDS011;37338;47.426;19.204;2024-02-04T03:47:20;1.37;;;0.60;;
51266;SDS011;37338;47.426;19.204;2024-02-04T03:49:46;1.30;;;0.70;;
51266;SDS011;37338;47.426;19.204;2024-02-04T03:52:11;1.60;;;0.90;;
51266;SDS011;37338;47.426;19.204;2024-02-04T03:54:36;1.53;;;1.23;;
51266;SDS011;37338;47.426;19.204;2024-02-04T03:57:02;1.70;;;1.10;;
51266;SDS011;37338;47.426;19.204;2024-02-04T03:59:27;1.10;;;0.90;;
51266;SDS011;37338;47.426;19.204;2024-02-04T04:01:52;3.03;;;0.90;;
51266;SDS011;37338;47.426;19.204;2024-02-04T04:04:22;0.87;;;0.70;;
51266;SDS011;37338;47.426;19.204;2024-02-04T04:06:48;0.97;;;0.80;;
51266;SDS011;37338;47.426;19.204;2024-02-04T04:09:13;1.23;;;0.60;;
51266;SDS011;37338;47.426;19.204;2024-02-04T04:11:39;1.60;;;0.80;;
51266;SDS011;37338;47.426;19.204;2024-02-04T04:14:04;0.97;;;0.70;;
51266;SDS011;37338;47.426;19.204;2024-02-04T04:16:29;0.60;;;0.40;;
51266;SDS011;37338;47.426;19.204;2024-02-04T04:18:54;1.20;;;0.60;;
51266;SDS011;37338;47.426;19.204;2024-02-04T04:21:20;1.40;;;0.70;;
51266;SDS011;37338;47.426;19.204;2024-02-04T04:23:45;0.93;;;0.73;;
51266;SDS011;37338;47.426;19.204;2024-02-04T04:26:10;1.47;;;0.90;;
51266;SDS011;37338;47.426;19.204;2024-02-04T04:28:36;0.93;;;0.77;;
51266;SDS011;37338;47.426;19.204;2024-02-04T04:31:01;0.50;;;0.50;;
51266;SDS011;37338;47.426;19.204;2024-02-04T04:33:27;0.90;;;0.60;;
51266;SDS011;37338;47.426;19.204;2024-02-04T04:35:52;0.90;;;0.73;;
51266;SDS011;37338;47.426;19.204;2024-02-04T04:38:17;3.70;;;0.90;;
51266;SDS011;37338;47.426;19.204;2024-02-04T04:40:42;0.80;;;0.80;;
51266;SDS011;37338;47.426;19.204;2024-02-04T04:43:08;3.83;;;0.67;;
51266;SDS011;37338;47.426;19.204;2024-02-04T04:45:33;2.20;;;0.90;;
51266;SDS011;37338;47.426;19.204;2024-02-04T04:47:59;0.47;;;0.40;;
51266;SDS011;37338;47.426;19.204;2024-02-04T04:50:24;1.43;;;0.80;;
51266;SDS011;37338;47.426;19.204;2024-02-04T04:52:49;1.43;;;0.87;;
51266;SDS011;37338;47.426;19.204;2024-02-04T04:55:15;0.90;;;0.57;;
51266;SDS011;37338;47.426;19.204;2024-02-04T04:57:40;1.03;;;0.60;;
51266;SDS011;37338;47.426;19.204;2024-02-04T05:00:06;0.87;;;0.60;;
51266;SDS011;37338;47.426;19.204;2024-02-04T05:02:32;1.23;;;0.90;;
51266;SDS011;37338;47.426;19.204;2024-02-04T05:04:58;0.70;;;0.67;;
51266;SDS011;37338;47.426;19.204;2024-02-04T05:07:23;1.10;;;0.73;;
51266;SDS011;37338;47.426;19.204;2024-02-04T05:09:49;0.70;;;0.63;;
51266;SDS011;37338;47.426;19.204;2024-02-04T05:12:14;0.90;;;0.70;;
51266;SDS011;37338;47.426;19.204;2024-02-04T05:14:39;1.70;;;0.80;;
51266;SDS011;37338;47.426;19.204;2024-02-04T05:17:04;1.67;;;1.00;;
51266;SDS011;37338;47.426;19.204;2024-02-04T05:19:30;2.00;;;1.30;;
51266;SDS011;37338;47.426;19.204;2024-02-04T05:21:56;1.70;;;1.03;;
51266;SDS011;37338;47.426;19.204;2024-02-04T05:24:21;1.57;;;0.83;;
51266;SDS011;37338;47.426;19.204;2024-02-04T05:26:47;1.70;;;0.93;;
51266;SDS011;37338;47.426;19.204;2024-02-04T05:29:12;1.50;;;0.90;;
51266;SDS011;37338;47.426;19.204;2024-02-04T05:31:44;0.93;;;0.80;;
51266;SDS011;37338;47.426;19.204;2024-02-04T05:34:12;1.10;;;0.90;;
51266;SDS011;37338;47.426;19.204;2024-02-04T05:36:38;0.90;;;0.73;;
51266;SDS011;37338;47.426;19.204;2024-02-04T05:39:12;1.53;;;1.00;;
51266;SDS011;37338;47.426;19.204;2024-02-04T05:41:38;1.10;;;0.70;;
51266;SDS011;37338;47.426;19.204;2024-02-04T05:44:04;2.10;;;1.03;;
51266;SDS011;37338;47.426;19.204;2024-02-04T05:46:30;0.80;;;0.73;;
51266;SDS011;37338;47.426;19.204;2024-02-04T05:48:55;1.10;;;1.00;;
51266;SDS011;37338;47.426;19.204;2024-02-04T05:51:21;0.80;;;0.73;;
51266;SDS011;37338;47.426;19.204;2024-02-04T05:53:47;1.13;;;0.97;;
51266;SDS011;37338;47.426;19.204;2024-02-04T05:56:12;1.17;;;1.07;;
51266;SDS011;37338;47.426;19.204;2024-02-04T05:58:38;2.03;;;1.30;;
51266;SDS011;37338;47.426;19.204;2024-02-04T06:01:03;4.10;;;0.87;;
51266;SDS011;37338;47.426;19.204;2024-02-04T06:03:28;2.57;;;1.00;;
51266;SDS011;37338;47.426;19.204;2024-02-04T06:05:54;1.77;;;1.27;;
51266;SDS011;37338;47.426;19.204;2024-02-04T06:08:19;1.60;;;1.50;;
51266;SDS011;37338;47.426;19.204;2024-02-04T06:10:44;1.37;;;1.20;;
51266;SDS011;37338;47.426;19.204;2024-02-04T06:13:09;2.33;;;1.40;;
51266;SDS011;37338;47.426;19.204;2024-02-04T06:15:35;2.10;;;0.83;;
51266;SDS011;37338;47.426;19.204;2024-02-04T06:18:00;4.30;;;1.20;;
51266;SDS011;37338;47.426;19.204;2024-02-04T06:20:26;1.20;;;0.80;;
51266;SDS011;37338;47.426;19.204;2024-02-04T06:22:51;1.83;;;1.10;;
51266;SDS011;37338;47.426;19.204;2024-02-04T06:25:17;1.20;;;1.10;;
51266;SDS011;37338;47.426;19.204;2024-02-04T06:27:42;1.00;;;0.90;;
51266;SDS011;37338;47.426;19.204;2024-02-04T06:30:08;1.37;;;1.17;;
51266;SDS011;37338;47.426;19.204;2024-02-04T06:32:33;1.37;;;0.87;;
51266;SDS011;37338;47.426;19.204;2024-02-04T06:34:58;1.10;;;1.00;;
51266;SDS011;37338;47.426;19.204;2024-02-04T06:37:24;1.47;;;1.07;;
51266;SDS011;37338;47.426;19.204;2024-02-04T06:39:50;1.93;;;0.80;;
51266;SDS011;37338;47.426;19.204;2024-02-04T06:42:16;1.30;;;0.70;;
51266;SDS011;37338;47.426;19.204;2024-02-04T06:44:43;1.43;;;0.90;;
51266;SDS011;37338;47.426;19.204;2024-02-04T06:47:09;1.00;;;0.77;;
51266;SDS011;37338;47.426;19.204;2024-02-04T06:49:37;1.53;;;0.60;;
51266;SDS011;37338;47.426;19.204;2024-02-04T06:52:02;0.90;;;0.70;;
51266;SDS011;37338;47.426;19.204;2024-02-04T06:54:28;0.50;;;0.50;;
51266;SDS011;37338;47.426;19.204;2024-02-04T06:56:53;0.70;;;0.70;;
51266;SDS011;37338;47.426;19.204;2024-02-04T06:59:18;0.50;;;0.40;;
51266;SDS011;37338;47.426;19.204;2024-02-04T07:01:44;1.00;;;0.70;;
51266;SDS011;37338;47.426;19.204;2024-02-04T07:04:09;0.60;;;0.40;;
51266;SDS011;37338;47.426;19.204;2024-02-04T07:06:34;2.07;;;0.60;;
51266;SDS011;37338;47.426;19.204;2024-02-04T07:09:00;0.63;;;0.50;;
51266;SDS011;37338;47.426;19.204;2024-02-04T07:11:25;0.93;;;0.60;;
51266;SDS011;37338;47.426;19.204;2024-02-04T07:13:50;0.60;;;0.60;;
51266;SDS011;37338;47.426;19.204;2024-02-04T07:16:23;0.80;;;0.50;;
51266;SDS011;37338;47.426;19.204;2024-02-04T07:18:48;0.97;;;0.60;;
51266;SDS011;37338;47.426;19.204;2024-02-04T07:21:14;1.97;;;0.60;;
51266;SDS011;37338;47.426;19.204;2024-02-04T07:23:39;1.03;;;0.70;;
51266;SDS011;37338;47.426;19.204;2024-02-04T07:26:04;1.07;;;0.67;;
51266;SDS011;37338;47.426;19.204;2024-02-04T07:28:30;0.93;;;0.70;;
51266;SDS011;37338;47.426;19.204;2024-02-04T07:30:55;1.00;;;0.60;;
51266;SDS011;37338;47.426;19.204;2024-02-04T07:33:20;1.43;;;0.80;;
51266;SDS011;37338;47.426;19.204;2024-02-04T07:35:46;0.93;;;0.60;;
51266;SDS011;37338;47.426;19.204;2024-02-04T07:38:11;0.60;;;0.60;;
51266;SDS011;37338;47.426;19.204;2024-02-04T07:40:36;1.30;;;0.60;;
51266;SDS011;37338;47.426;19.204;2024-02-04T07:43:02;2.20;;;1.60;;
51266;SDS011;37338;47.426;19.204;2024-02-04T07:45:27;2.83;;;1.50;;
51266;SDS011;37338;47.426;19.204;2024-02-04T07:47:52;0.80;;;0.60;;
51266;SDS011;37338;47.426;19.204;2024-02-04T07:50:18;0.60;;;0.50;;
51266;SDS011;37338;47.426;19.204;2024-02-04T07:52:43;0.83;;;0.57;;
51266;SDS011;37338;47.426;19.204;2024-02-04T07:55:08;0.90;;;0.30;;
51266;SDS011;37338;47.426;19.204;2024-02-04T07:57:34;1.03;;;0.70;;
51266;SDS011;37338;47.426;19.204;2024-02-04T07:59:59;0.70;;;0.40;;
51266;SDS011;37338;47.426;19.204;2024-02-04T08:02:24;0.60;;;0.27;;
51266;SDS011;37338;47.426;19.204;2024-02-04T08:04:50;1.13;;;0.50;;
51266;SDS011;37338;47.426;19.204;2024-02-04T08:07:15;1.37;;;0.30;;
51266;SDS011;37338;47.426;19.204;2024-02-04T08:09:42;1.23;;;0.53;;
51266;SDS011;37338;47.426;19.204;2024-02-04T08:12:07;0.30;;;0.20;;
51266;SDS011;37338;47.426;19.204;2024-02-04T08:14:33;0.40;;;0.30;;
51266;SDS011;37338;47.426;19.204;2024-02-04T08:16:58;0.60;;;0.30;;
51266;SDS011;37338;47.426;19.204;2024-02-04T08:19:24;1.10;;;0.40;;
51266;SDS011;37338;47.426;19.204;2024-02-04T08:21:49;0.30;;;0.27;;
51266;SDS011;37338;47.426;19.204;2024-02-04T08:24:14;0.57;;;0.20;;
51266;SDS011;37338;47.426;19.204;2024-02-04T08:26:39;0.87;;;0.30;;
51266;SDS011;37338;47.426;19.204;2024-02-04T08:29:05;0.60;;;0.20;;
51266;SDS011;37338;47.426;19.204;2024-02-04T08:31:31;1.03;;;0.37;;
51266;SDS011;37338;47.426;19.204;2024-02-04T08:33:57;0.50;;;0.30;;
51266;SDS011;37338;47.426;19.204;2024-02-04T08:36:22;0.47;;;0.30;;
51266;SDS011;37338;47.426;19.204;2024-02-04T08:38:47;0.80;;;0.20;;
51266;SDS011;37338;47.426;19.204;2024-02-04T08:41:13;0.70;;;0.20;;
51266;SDS011;37338;47.426;19.204;2024-02-04T08:43:38;0.43;;;0.23;;
51266;SDS011;37338;47.426;19.204;2024-02-04T08:46:04;1.63;;;0.47;;
51266;SDS011;37338;47.426;19.204;2024-02-04T08:48:30;0.63;;;0.30;;
51266;SDS011;37338;47.426;19.204;2024-02-04T08:50:55;2.60;;;0.50;;
51266;SDS011;37338;47.426;19.204;2024-02-04T08:53:21;2.73;;;0.50;;
51266;SDS011;37338;47.426;19.204;2024-02-04T08:55:46;0.47;;;0.40;;
51266;SDS011;37338;47.426;19.204;2024-02-04T08:58:12;1.93;;;0.50;;
51266;SDS011;37338;47.426;19.204;2024-02-04T09:00:37;1.07;;;0.50;;
51266;SDS011;37338;47.426;19.204;2024-02-04T09:03:02;0.70;;;0.30;;
51266;SDS011;37338;47.426;19.204;2024-02-04T09:05:28;3.60;;;0.40;;
51266;SDS011;37338;47.426;19.204;2024-02-04T09:07:53;0.50;;;0.30;;
51266;SDS011;37338;47.426;19.204;2024-02-04T09:10:20;0.93;;;0.30;;
51266;SDS011;37338;47.426;19.204;2024-02-04T09:12:45;1.83;;;0.50;;
51266;SDS011;37338;47.426;19.204;2024-02-04T09:15:11;1.23;;;0.53;;
51266;SDS011;37338;47.426;19.204;2024-02-04T09:17:36;1.35;;;0.82;;
51266;SDS011;37338;47.426;19.204;2024-02-04T09:20:02;1.17;;;0.63;;
51266;SDS011;37338;47.426;19.204;2024-02-04T09:22:27;0.70;;;0.57;;
51266;SDS011;37338;47.426;19.204;2024-02-04T09:24:52;0.30;;;0.20;;
51266;SDS011;37338;47.426;19.204;2024-02-04T09:27:19;1.37;;;0.40;;
51266;SDS011;37338;47.426;19.204;2024-02-04T09:29:44;0.70;;;0.40;;
51266;SDS011;37338;47.426;19.204;2024-02-04T09:32:10;0.73;;;0.27;;
51266;SDS011;37338;47.426;19.204;2024-02-04T09:34:35;0.53;;;0.30;;
51266;SDS011;37338;47.426;19.204;2024-02-04T09:37:00;0.93;;;0.50;;
51266;SDS011;37338;47.426;19.204;2024-02-04T09:39:27;0.60;;;0.30;;
51266;SDS011;37338;47.426;19.204;2024-02-04T09:41:54;1.20;;;0.70;;
51266;SDS011;37338;47.426;19.204;2024-02-04T09:44:20;0.43;;;0.20;;
51266;SDS011;37338;47.426;19.204;2024-02-04T09:46:46;0.50;;;0.30;;
51266;SDS011;37338;47.426;19.204;2024-02-04T09:49:12;2.53;;;0.53;;
51266;SDS011;37338;47.426;19.204;2024-02-04T09:51:39;0.40;;;0.22;;
51266;SDS011;37338;47.426;19.204;2024-02-04T09:54:04;0.63;;;0.30;;
51266;SDS011;37338;47.426;19.204;2024-02-04T09:56:31;1.40;;;0.30;;
51266;SDS011;37338;47.426;19.204;2024-02-04T09:58:57;0.28;;;0.20;;
51266;SDS011;37338;47.426;19.204;2024-02-04T10:01:23;0.22;;;0.10;;
51266;SDS011;37338;47.426;19.204;2024-02-04T10:03:48;2.42;;;0.45;;
51266;SDS011;37338;47.426;19.204;2024-02-04T10:06:13;0.55;;;0.10;;
51266;SDS011;37338;47.426;19.204;2024-02-04T10:08:39;0.70;;;0.25;;
51266;SDS011;37338;47.426;19.204;2024-02-04T10:11:05;2.25;;;0.13;;
51266;SDS011;37338;47.426;19.204;2024-02-04T10:13:30;0.93;;;0.30;;
51266;SDS011;37338;47.426;19.204;2024-02-04T10:15:55;4.13;;;0.60;;
51266;SDS011;37338;47.426;19.204;2024-02-04T10:18:21;2.42;;;0.57;;
51266;SDS011;37338;47.426;19.204;2024-02-04T10:20:47;0.50;;;0.22;;
51266;SDS011;37338;47.426;19.204;2024-02-04T10:23:12;0.95;;;0.52;;
51266;SDS011;37338;47.426;19.204;2024-02-04T10:25:38;0.50;;;0.20;;
51266;SDS011;37338;47.426;19.204;2024-02-04T10:28:03;2.92;;;0.30;;
51266;SDS011;37338;47.426;19.204;2024-02-04T10:30:29;1.13;;;0.40;;
51266;SDS011;37338;47.426;19.204;2024-02-04T10:32:54;2.45;;;0.20;;
51266;SDS011;37338;47.426;19.204;2024-02-04T10:35:20;0.60;;;0.22;;
51266;SDS011;37338;47.426;19.204;2024-02-04T10:37:48;2.05;;;0.20;;
51266;SDS011;37338;47.426;19.204;2024-02-04T10:40:15;0.20;;;0.20;;
51266;SDS011;37338;47.426;19.204;2024-02-04T10:42:42;0.63;;;0.10;;
51266;SDS011;37338;47.426;19.204;2024-02-04T10:45:08;0.20;;;0.10;;
51266;SDS011;37338;47.426;19.204;2024-02-04T10:47:38;1.05;;;0.30;;
51266;SDS011;37338;47.426;19.204;2024-02-04T10:50:04;1.30;;;0.28;;
51266;SDS011;37338;47.426;19.204;2024-02-04T10:52:31;0.98;;;0.10;;
51266;SDS011;37338;47.426;19.204;2024-02-04T10:55:03;0.73;;;0.43;;
51266;SDS011;37338;47.426;19.204;2024-02-04T10:57:32;0.20;;;0.10;;
51266;SDS011;37338;47.426;19.204;2024-02-04T10:59:57;0.30;;;0.10;;
51266;SDS011;37338;47.426;19.204;2024-02-04T11:02:23;0.60;;;0.25;;
51266;SDS011;37338;47.426;19.204;2024-02-04T11:04:49;1.38;;;0.10;;
51266;SDS011;37338;47.426;19.204;2024-02-04T11:07:15;0.57;;;0.20;;
51266;SDS011;37338;47.426;19.204;2024-02-04T11:09:40;2.55;;;0.20;;
51266;SDS011;37338;47.426;19.204;2024-02-04T11:12:07;3.42;;;0.20;;
51266;SDS011;37338;47.426;19.204;2024-02-04T11:14:36;0.77;;;0.10;;
51266;SDS011;37338;47.426;19.204;2024-02-04T11:22:39;0.65;;;0.20;;
51266;SDS011;37338;47.426;19.204;2024-02-04T11:25:24;1.63;;;0.43;;
51266;SDS011;37338;47.426;19.204;2024-02-04T11:27:52;0.73;;;0.40;;
51266;SDS011;37338;47.426;19.204;2024-02-04T11:30:18;5.85;;;1.13;;
51266;SDS011;37338;47.426;19.204;2024-02-04T11:32:44;0.40;;;0.10;;
51266;SDS011;37338;47.426;19.204;2024-02-04T11:35:09;2.00;;;0.20;;
51266;SDS011;37338;47.426;19.204;2024-02-04T11:37:36;0.70;;;0.20;;
51266;SDS011;37338;47.426;19.204;2024-02-04T11:40:03;1.85;;;0.47;;
51266;SDS011;37338;47.426;19.204;2024-02-04T11:42:32;2.58;;;0.28;;
51266;SDS011;37338;47.426;19.204;2024-02-04T11:45:07;0.30;;;0.20;;
51266;SDS011;37338;47.426;19.204;2024-02-04T11:47:33;1.30;;;0.20;;
51266;SDS011;37338;47.426;19.204;2024-02-04T11:50:00;1.02;;;0.40;;
51266;SDS011;37338;47.426;19.204;2024-02-04T11:52:28;2.50;;;0.50;;
51266;SDS011;37338;47.426;19.204;2024-02-04T11:54:54;0.60;;;0.20;;
51266;SDS011;37338;47.426;19.204;2024-02-04T11:57:19;0.50;;;0.10;;
51266;SDS011;37338;47.426;19.204;2024-02-04T11:59:45;2.05;;;0.38;;
51266;SDS011;37338;47.426;19.204;2024-02-04T12:02:11;1.38;;;0.20;;
51266;SDS011;37338;47.426;19.204;2024-02-04T12:04:37;0.60;;;0.20;;
51266;SDS011;37338;47.426;19.204;2024-02-04T12:07:04;3.58;;;0.40;;
51266;SDS011;37338;47.426;19.204;2024-02-04T12:09:30;1.50;;;0.65;;
51266;SDS011;37338;47.426;19.204;2024-02-04T12:11:56;2.47;;;0.60;;
51266;SDS011;37338;47.426;19.204;2024-02-04T12:14:22;1.73;;;0.40;;
51266;SDS011;37338;47.426;19.204;2024-02-04T12:16:47;1.27;;;0.10;;
51266;SDS011;37338;47.426;19.204;2024-02-04T12:19:13;4.20;;;0.75;;
51266;SDS011;37338;47.426;19.204;2024-02-04T12:21:38;2.42;;;0.63;;
51266;SDS011;37338;47.426;19.204;2024-02-04T12:24:04;2.83;;;0.82;;
51266;SDS011;37338;47.426;19.204;2024-02-04T12:26:29;1.70;;;0.20;;
51266;SDS011;37338;47.426;19.204;2024-02-04T12:28:55;3.15;;;0.30;;
51266;SDS011;37338;47.426;19.204;2024-02-04T12:31:21;5.22;;;1.63;;
51266;SDS011;37338;47.426;19.204;2024-02-04T12:33:55;2.60;;;0.38;;
51266;SDS011;37338;47.426;19.204;2024-02-04T12:36:26;2.60;;;0.20;;
51266;SDS011;37338;47.426;19.204;2024-02-04T12:38:55;0.60;;;0.20;;
51266;SDS011;37338;47.426;19.204;2024-02-04T12:43:56;0.55;;;0.10;;
51266;SDS011;37338;47.426;19.204;2024-02-04T12:46:28;0.80;;;0.35;;
51266;SDS011;37338;47.426;19.204;2024-02-04T12:48:57;0.10;;;0.00;;
51266;SDS011;37338;47.426;19.204;2024-02-04T12:51:26;0.98;;;0.15;;
51266;SDS011;37338;47.426;19.204;2024-02-04T12:59:26;1.65;;;0.20;;
51266;SDS011;37338;47.426;19.204;2024-02-04T13:01:59;2.03;;;0.10;;
51266;SDS011;37338;47.426;19.204;2024-02-04T13:04:37;0.93;;;0.30;;
51266;SDS011;37338;47.426;19.204;2024-02-04T13:07:10;0.28;;;0.10;;
51266;SDS011;37338;47.426;19.204;2024-02-04T13:09:37;4.07;;;0.52;;
51266;SDS011;37338;47.426;19.204;2024-02-04T13:12:06;2.92;;;0.30;;
51266;SDS011;37338;47.426;19.204;2024-02-04T13:14:35;0.28;;;0.10;;
51266;SDS011;37338;47.426;19.204;2024-02-04T13:17:01;0.20;;;0.10;;
51266;SDS011;37338;47.426;19.204;2024-02-04T13:19:37;6.13;;;0.20;;
51266;SDS011;37338;47.426;19.204;2024-02-04T13:22:04;3.10;;;0.20;;
51266;SDS011;37338;47.426;19.204;2024-02-04T13:24:30;0.77;;;0.50;;
51266;SDS011;37338;47.426;19.204;2024-02-04T13:26:56;0.40;;;0.20;;
51266;SDS011;37338;47.426;19.204;2024-02-04T13:29:22;0.70;;;0.25;;
51266;SDS011;37338;47.426;19.204;2024-02-04T13:31:47;0.20;;;0.10;;
51266;SDS011;37338;47.426;19.204;2024-02-04T13:34:13;0.68;;;0.20;;
51266;SDS011;37338;47.426;19.204;2024-02-04T13:36:38;0.38;;;0.10;;
51266;SDS011;37338;47.426;19.204;2024-02-04T13:39:03;1.15;;;0.95;;
51266;SDS011;37338;47.426;19.204;2024-02-04T13:41:30;2.13;;;0.10;;
51266;SDS011;37338;47.426;19.204;2024-02-04T13:43:56;0.10;;;0.10;;
51266;SDS011;37338;47.426;19.204;2024-02-04T13:46:21;0.40;;;0.10;;
51266;SDS011;37338;47.426;19.204;2024-02-04T13:48:47;1.35;;;0.13;;
51266;SDS011;37338;47.426;19.204;2024-02-04T13:51:12;0.40;;;0.20;;
51266;SDS011;37338;47.426;19.204;2024-02-04T13:53:37;0.28;;;0.17;;
51266;SDS011;37338;47.426;19.204;2024-02-04T13:56:03;0.70;;;0.20;;
51266;SDS011;37338;47.426;19.204;2024-02-04T13:58:28;0.28;;;0.15;;
51266;SDS011;37338;47.426;19.204;2024-02-04T14:00:54;0.70;;;0.25;;
51266;SDS011;37338;47.426;19.204;2024-02-04T14:03:19;2.20;;;0.35;;
51266;SDS011;37338;47.426;19.204;2024-02-04T14:05:44;2.53;;;0.17;;
51266;SDS011;37338;47.426;19.204;2024-02-04T14:08:10;0.50;;;0.10;;
51266;SDS011;37338;47.426;19.204;2024-02-04T14:10:35;0.70;;;0.20;;
51266;SDS011;37338;47.426;19.204;2024-02-04T14:13:01;2.75;;;0.20;;
51266;SDS011;37338;47.426;19.204;2024-02-04T14:15:27;1.20;;;0.10;;
51266;SDS011;37338;47.426;19.204;2024-02-04T14:17:52;0.73;;;0.63;;
51266;SDS011;37338;47.426;19.204;2024-02-04T14:20:19;0.60;;;0.20;;
51266;SDS011;37338;47.426;19.204;2024-02-04T14:22:44;0.47;;;0.20;;
51266;SDS011;37338;47.426;19.204;2024-02-04T14:25:10;0.63;;;0.20;;
51266;SDS011;37338;47.426;19.204;2024-02-04T14:27:35;0.40;;;0.20;;
51266;SDS011;37338;47.426;19.204;2024-02-04T14:30:01;2.20;;;0.20;;
51266;SDS011;37338;47.426;19.204;2024-02-04T14:32:28;0.20;;;0.10;;
51266;SDS011;37338;47.426;19.204;2024-02-04T14:34:53;0.73;;;0.10;;
51266;SDS011;37338;47.426;19.204;2024-02-04T14:37:19;0.40;;;0.30;;
51266;SDS011;37338;47.426;19.204;2024-02-04T14:39:45;0.35;;;0.10;;
51266;SDS011;37338;47.426;19.204;2024-02-04T14:42:10;0.30;;;0.10;;